Thursday, May 24, 2018, 6:02 AM EDT
Back to Local

KRME, Griffiss Airfield

Location: Rome, NY, United States Lat: 43.233
Local Time: 6:02 AM EDT (10:02 GMT) Lon: -75.4
Time Zone: US/Eastern Elev: 505 ft

Show me the last for .
Show Decoded

2018-05-24 05:53 METAR KRME 240953Z AUTO 00000KT 10SM CLR 07/06 A3019 RMK AO2 SLP220 T00670061 $
                 =
2018-05-24 04:53 METAR KRME 240853Z AUTO 00000KT 10SM CLR 07/06 A3017 RMK AO2 SLPNO T00670056
                 53018 $ =
2018-05-24 03:53 METAR KRME 240753Z AUTO 00000KT 10SM CLR 07/07 A3015 RMK AO2 SLP207 T00670067 $
                 =
2018-05-24 02:53 METAR KRME 240653Z AUTO 03003KT 10SM CLR 08/08 A3012 RMK AO2 SLP199 T00830078 $
                 =
2018-05-24 01:53 METAR KRME 240553Z AUTO 00000KT 10SM CLR 09/08 A3011 RMK AO2 SLP195 T00940083
                 10183 20094 53015 $ =
2018-05-24 00:53 METAR KRME 240453Z AUTO 00000KT 10SM CLR 11/10 A3009 RMK AO2 SLP189 T01060100
                 402330106 $ =
2018-05-23 23:53 METAR KRME 240353Z AUTO 02003KT 10SM CLR 12/11 A3007 RMK AO2 SLP182 T01170106 $
                 =
2018-05-23 22:53 METAR KRME 240253Z AUTO 07003KT 10SM CLR 13/12 A3007 RMK AO2 SLP180 T01330117
                 51011 $ =
2018-05-23 21:53 METAR KRME 240153Z AUTO 00000KT 10SM CLR 15/12 A3006 RMK AO2 SLP178 T01500117 $
                 =
2018-05-23 20:53 METAR KRME 240053Z 00000KT 10SM SCT080 17/12 A3005 RMK AO2 SLPNO T01670122 $ =
2018-05-23 19:53 METAR KRME 232353Z 32006KT 10SM CLR 18/12 A3004 =
2018-05-23 18:53 METAR KRME 232253Z 29010KT 10SM CLR 21/12 A3002 =
2018-05-23 17:53 METAR KRME 232153Z 29013KT 10SM CLR 22/11 A3001 =
2018-05-23 16:53 METAR KRME 232053Z 29013KT 10SM CLR 22/13 A3000 =
2018-05-23 15:53 METAR KRME 231953Z 29011G20KT 10SM CLR 23/13 A3000 =
2018-05-23 14:53 METAR KRME 231853Z 29013G22KT 10SM CLR 22/13 A3001 =
2018-05-23 13:53 METAR KRME 231753Z 29009G16KT 10SM CLR 21/15 A3001 =
2018-05-23 12:53 METAR KRME 231653Z 24008KT 10SM CLR 20/15 A3002 =
2018-05-23 11:53 METAR KRME 231553Z 25008KT 10SM SCT020 18/14 A3002 =
2018-05-23 10:53 METAR KRME 231453Z 26007KT 10SM BKN015 17/14 A3003 =
2018-05-23 09:53 METAR KRME 231353Z 25009KT 10SM BKN014 OVC018 16/14 A3003 =
2018-05-23 09:14 METAR KRME 231314Z 26008KT 10SM BKN014 BKN020 16/13 A3003 =
2018-05-23 08:53 METAR KRME 231253Z 28005KT 10SM BKN015 16/13 A3003 =
2018-05-23 07:53 METAR KRME 231153Z 26005KT 10SM FEW016 BKN030 14/13 A3002 =
2018-05-23 06:53 METAR KRME 231053Z 28006KT 10SM OVC021 13/13 A3000 =

Support USWX by starting your Amazon purchase here.